Terminal Aerodrome Forecast
Issued by NWS Tulsa, OK

Home | Current Version | Previous Version | Text Only | Print | Product List | Glossary On
Versions: 1 2 3 4 5 6 7 8 9 10 11 12 13 14
000
FTUS44 KTSA 261700
TAFTUL
TAF
KTUL 261720Z 2618/2718 31018G25KT P6SM SCT050
     FM270000 34010KT P6SM SCT250
     FM270600 35004KT P6SM SCT250
     FM271500 10005KT P6SM SCT150=

USA.gov is the U.S. government's official web portal to all federal, state and local government web resources and services.